Catano, PR

5:32 AM AST on December 22, 2014 (GMT -0400)
WP3W-WX @ Levittown | Change Station
CLOSE
Current Station
Personal Weather Station
Location: Toa Baja, PR
Elevation: 10 ft
Nearby Weather Stations

Elev 10 ft 18.44 °N, 66.17 °W | Updated 11 minutes ago

Scattered Clouds
Scattered Clouds
71.4 °F
Feels Like 71.4 °F
N
2.7
Wind Variable Wind from West

Today
High -- | Low -- °F
--% Chance of Precip.
Yesterday
High -- | Low -- °F
Precip. -- in
6:52 AM 5:53 PM
New Moon, 0% visible
Pressure 30.01 in
Visibility 10.0 miles
Clouds Few 3400 ft
Scattered Clouds 4300 ft
Dew Point 68 °F
Humidity 88%
Rainfall 0.00 in
Snow Depth Not available.
UV 0 out of 12
Pollen Not available.
Air Quality Not available.
Flu Activity Not available.
METAR TJSJ 220856Z 00000KT 10SM FEW034 SCT043 23/21 A3002 RMK AO2 SLP163 60003 T02330206 55010

More Conditions Fewer Conditions

Pressure 30.01 in
Visibility 10.0 miles
Clouds Few 3400 ft
Scattered Clouds 4300 ft
Dew Point 68 °F
Humidity 88%
Rainfall 0.00 in
Snow Depth Not available.
UV 0 out of 12
Pollen Not available.
Air Quality Not available.
Flu Activity Not available.
METAR TJSJ 220856Z 00000KT 10SM FEW034 SCT043 23/21 A3002 RMK AO2 SLP163 60003 T02330206 55010

More Conditions Fewer Conditions

10-Day Weather Forecast

Almanac

Astronomy

Dec. 22, 2014 Rise Set
Actual Time
Civil Twilight
Nautical Twilight
Astronomical Twilight
Moon
Length of Visible Light
Length of Day
Tomorrow will be .
, % of the Moon is Illuminated

Today's Extremes

State Highs State Lows

Community

WunderPhotos

Upload Photos

1,779,583 photos uploaded!

WunderBlogs® & News

Nearby

Air Quality

  Air Quality AQ Index Pollutant
Not available.

Snow Depth

Station Depth Elevation

Earthquake Activity

City Distance Mag. Time & Date
Minimum magnitude displayed is 2.5.

Coastal Water Temperatures

Place Temperature

Nearby Weather Stations